Boryslav — ENLB — position and weather

sailwx.info

Track history (hours):
 
Tides and Currents Weather Stations Pressure Air Temp Water Temp Dewpoint Dewpoint Depression Visibility Wind Speed Wind Dir Waves Ship Positions

Boryslav

Last reported at 2015-Oct-23 07:31 UTC. Time now 2016-Feb-07 10:39 UTC.
Position N 46°35' E 031°52'.
Warning: this ship's position is months out of date.

Length 86 m; draft 2.4 m.

Type: Cargo ship. MMSI: 272088700.

Date/timePositionNaut miles runAvg speedWind from/ knotsBaromVisibWave heightAir tempDewpointWater temp
2015-Oct-23 07:31N 46°35' E 031°52'  
2015-Oct-19 16:20N 47°35' E 035°02'5 5.2
2015-Oct-19 15:21N 47°39' E 035°06'4 5.2
2015-Oct-19 14:33N 47°43' E 035°08'5 4.9
2015-Oct-19 13:33N 47°48' E 035°10'1 0.9
2015-Oct-19 12:33N 47°48' E 035°09'0 0.0
2015-Oct-19 11:33N 47°48' E 035°09'2 1.8
2015-Oct-19 10:33N 47°50' E 035°07'3 2.5
2015-Oct-19 09:33N 47°52' E 035°06'1 0.7
2015-Oct-19 08:34N 47°52' E 035°06'0 0.3
2015-Oct-19 07:33N 47°52' E 035°06'0 0.0
2015-Oct-19 06:33N 47°52' E 035°06'0 0.0
2015-Oct-19 05:33N 47°52' E 035°06'0 0.0
2015-Oct-19 04:33N 47°52' E 035°06'0 0.0
2015-Oct-19 03:33N 47°52' E 035°06'0 0.0
2015-Oct-19 02:33N 47°52' E 035°06'0 0.0
2015-Oct-19 01:34N 47°52' E 035°06'0 0.0
2015-Oct-19 00:33N 47°52' E 035°06'0 0.0
2015-Oct-18 23:34N 47°52' E 035°06'0 0.0
2015-Oct-18 22:33N 47°52' E 035°06'0 0.0
2015-Oct-18 21:33N 47°52' E 035°06'0 0.0
2015-Oct-18 20:33N 47°52' E 035°06'0 0.0
2015-Oct-18 19:33N 47°52' E 035°06'0 0.0
2015-Oct-18 18:33N 47°52' E 035°06'0 0.0
2015-Oct-18 17:33N 47°52' E 035°06'0 0.0
2015-Oct-18 16:33N 47°52' E 035°06'0 0.1
2015-Oct-18 15:33N 47°52' E 035°06'0 0.0
2015-Oct-18 14:33N 47°52' E 035°06'0 0.0
2015-Oct-18 13:34N 47°52' E 035°06'0 0.0
2015-Oct-18 12:33N 47°52' E 035°06'0 0.0
2015-Oct-18 11:33N 47°52' E 035°06'0 0.0
2015-Oct-18 10:34N 47°52' E 035°06'0 0.2
2015-Oct-18 09:34N 47°52' E 035°06'0 0.3
2015-Oct-18 08:33N 47°52' E 035°06'0 0.0
2015-Oct-18 07:34N 47°52' E 035°06'0 0.0
2015-Oct-18 06:34N 47°52' E 035°06'0 0.0
2015-Oct-18 05:34N 47°52' E 035°06'0 0.0
2015-Oct-18 04:34N 47°52' E 035°06'0 0.0
2015-Oct-18 03:34N 47°52' E 035°06'0 0.0
2015-Oct-18 02:33N 47°52' E 035°06'0 0.0
2015-Oct-18 01:33N 47°52' E 035°06'0 0.0
2015-Oct-18 00:33N 47°52' E 035°06'0 0.0
2015-Oct-17 23:34N 47°52' E 035°06'0 0.0
2015-Oct-17 22:34N 47°52' E 035°06'0 0.0
2015-Oct-17 21:34N 47°52' E 035°06'0 0.0
2015-Oct-17 20:34N 47°52' E 035°06'0 0.0
2015-Oct-17 19:34N 47°52' E 035°06'0 0.0
2015-Oct-17 18:34N 47°52' E 035°06'0 0.0
2015-Oct-17 17:33N 47°52' E 035°06'0 0.0
2015-Oct-17 16:33N 47°52' E 035°06'0 0.0
2015-Oct-17 15:33N 47°52' E 035°06'0 0.0
2015-Oct-17 14:33N 47°52' E 035°06'0 0.0
2015-Oct-17 13:33N 47°52' E 035°06'0 0.2
2015-Oct-17 12:33N 47°52' E 035°06'0 0.2
2015-Oct-17 11:33N 47°52' E 035°06'0 0.0
2015-Oct-17 10:33N 47°52' E 035°06'0 0.3
2015-Oct-17 09:33N 47°53' E 035°07'0 0.0
2015-Oct-17 08:33N 47°53' E 035°07'0 0.0
2015-Oct-17 06:32N 47°53' E 035°07'0 0.0
2015-Oct-17 05:33N 47°53' E 035°07'0 0.0
2015-Oct-17 04:33N 47°53' E 035°07'0 0.0
2015-Oct-17 03:33N 47°53' E 035°07'0 0.0
2015-Oct-17 02:33N 47°53' E 035°07'0 0.0
2015-Oct-17 01:33N 47°53' E 035°07'0 0.0
2015-Oct-17 00:33N 47°53' E 035°07'0 0.0
2015-Oct-16 23:33N 47°53' E 035°07'0 0.0
2015-Oct-16 22:33N 47°53' E 035°07'0 0.0
2015-Oct-16 21:33N 47°53' E 035°07'0 0.0
2015-Oct-16 20:33N 47°53' E 035°07'0 0.0
2015-Oct-16 19:33N 47°53' E 035°07'0 0.0
2015-Oct-16 18:33N 47°53' E 035°07'0 0.0
2015-Oct-16 17:33N 47°53' E 035°07'0 0.0
2015-Oct-16 16:33N 47°53' E 035°07'0 0.0
2015-Oct-16 15:33N 47°53' E 035°07'0 0.0
2015-Oct-16 14:33N 47°53' E 035°07'0 0.0
2015-Oct-16 13:33N 47°53' E 035°07'0 0.0
2015-Oct-16 12:33N 47°53' E 035°07'0 0.0
2015-Oct-16 11:33N 47°53' E 035°07'0 0.0
2015-Oct-16 10:33N 47°53' E 035°07'0 0.0
2015-Oct-16 09:33N 47°53' E 035°07'0 0.0
2015-Oct-16 08:34N 47°53' E 035°07'0 0.5
2015-Oct-16 07:33N 47°52' E 035°06'1 0.8
2015-Oct-16 06:34N 47°52' E 035°05'4 3.6
2015-Oct-16 05:33N 47°49' E 035°09'4 4.1
2015-Oct-16 04:33N 47°45' E 035°10'4 3.8
2015-Oct-16 03:33N 47°41' E 035°08'5 4.0
2015-Oct-16 02:25N 47°38' E 035°04'2 2.5
2015-Oct-16 01:31N 47°36' E 035°02'0 0.1
2015-Oct-16 00:33N 47°36' E 035°02'0 0.0
2015-Oct-15 23:28N 47°36' E 035°02'0 0.0
2015-Oct-15 22:33N 47°36' E 035°02'0 0.0
2015-Oct-15 21:32N 47°36' E 035°02'1 0.6
2015-Oct-15 20:33N 47°35' E 035°03'0 0.4
2015-Oct-15 19:33N 47°35' E 035°03'0 0.0
2015-Oct-15 18:33N 47°35' E 035°03'0 0.0
2015-Oct-15 17:33N 47°35' E 035°03'0 0.0
2015-Oct-15 16:33N 47°35' E 035°03'0 0.0
2015-Oct-15 15:33N 47°35' E 035°03'0 0.0
2015-Oct-15 14:33N 47°35' E 035°03'0 0.0
2015-Oct-15 13:33N 47°35' E 035°03'0 0.0
2015-Oct-15 12:33N 47°35' E 035°03'0 0.4
2015-Oct-15 11:25N 47°35' E 035°03'0 0.0
2015-Oct-15 10:09N 47°35' E 035°03'0 0.0
2015-Oct-15 09:27N 47°35' E 035°03'0 0.0
2015-Oct-15 08:33N 47°35' E 035°03'  
Track history (hours):
 
Tides and Currents Weather Stations Pressure Air Temp Water Temp Dewpoint Dewpoint Depression Visibility Wind Speed Wind Dir Waves Ship Positions

Boryslav

Last reported at 2015-Oct-23 07:31 UTC. Time now 2016-Feb-07 10:39 UTC.
Position N 46°35' E 031°52'.
Warning: this ship's position is months out of date.

Length 86 m; draft 2.4 m.

Type: Cargo ship. MMSI: 272088700.

Date/timePositionNaut miles runAvg speedWind from/ knotsBaromVisibWave heightAir tempDewpointWater temp
2015-Oct-23 07:31N 46°35' E 031°52'  
2015-Oct-19 16:20N 47°35' E 035°02'5 5.2
2015-Oct-19 15:21N 47°39' E 035°06'4 5.2
2015-Oct-19 14:33N 47°43' E 035°08'5 4.9
2015-Oct-19 13:33N 47°48' E 035°10'1 0.9
2015-Oct-19 12:33N 47°48' E 035°09'0 0.0
2015-Oct-19 11:33N 47°48' E 035°09'2 1.8
2015-Oct-19 10:33N 47°50' E 035°07'3 2.5
2015-Oct-19 09:33N 47°52' E 035°06'1 0.7
2015-Oct-19 08:34N 47°52' E 035°06'0 0.3
2015-Oct-19 07:33N 47°52' E 035°06'0 0.0
2015-Oct-19 06:33N 47°52' E 035°06'0 0.0
2015-Oct-19 05:33N 47°52' E 035°06'0 0.0
2015-Oct-19 04:33N 47°52' E 035°06'0 0.0
2015-Oct-19 03:33N 47°52' E 035°06'0 0.0
2015-Oct-19 02:33N 47°52' E 035°06'0 0.0
2015-Oct-19 01:34N 47°52' E 035°06'0 0.0
2015-Oct-19 00:33N 47°52' E 035°06'0 0.0
2015-Oct-18 23:34N 47°52' E 035°06'0 0.0
2015-Oct-18 22:33N 47°52' E 035°06'0 0.0
2015-Oct-18 21:33N 47°52' E 035°06'0 0.0
2015-Oct-18 20:33N 47°52' E 035°06'0 0.0
2015-Oct-18 19:33N 47°52' E 035°06'0 0.0
2015-Oct-18 18:33N 47°52' E 035°06'0 0.0
2015-Oct-18 17:33N 47°52' E 035°06'0 0.0
2015-Oct-18 16:33N 47°52' E 035°06'0 0.1
2015-Oct-18 15:33N 47°52' E 035°06'0 0.0
2015-Oct-18 14:33N 47°52' E 035°06'0 0.0
2015-Oct-18 13:34N 47°52' E 035°06'0 0.0
2015-Oct-18 12:33N 47°52' E 035°06'0 0.0
2015-Oct-18 11:33N 47°52' E 035°06'0 0.0
2015-Oct-18 10:34N 47°52' E 035°06'0 0.2
2015-Oct-18 09:34N 47°52' E 035°06'0 0.3
2015-Oct-18 08:33N 47°52' E 035°06'0 0.0
2015-Oct-18 07:34N 47°52' E 035°06'0 0.0
2015-Oct-18 06:34N 47°52' E 035°06'0 0.0
2015-Oct-18 05:34N 47°52' E 035°06'0 0.0
2015-Oct-18 04:34N 47°52' E 035°06'0 0.0
2015-Oct-18 03:34N 47°52' E 035°06'0 0.0
2015-Oct-18 02:33N 47°52' E 035°06'0 0.0
2015-Oct-18 01:33N 47°52' E 035°06'0 0.0
2015-Oct-18 00:33N 47°52' E 035°06'0 0.0
2015-Oct-17 23:34N 47°52' E 035°06'0 0.0
2015-Oct-17 22:34N 47°52' E 035°06'0 0.0
2015-Oct-17 21:34N 47°52' E 035°06'0 0.0
2015-Oct-17 20:34N 47°52' E 035°06'0 0.0
2015-Oct-17 19:34N 47°52' E 035°06'0 0.0
2015-Oct-17 18:34N 47°52' E 035°06'0 0.0
2015-Oct-17 17:33N 47°52' E 035°06'0 0.0
2015-Oct-17 16:33N 47°52' E 035°06'0 0.0
2015-Oct-17 15:33N 47°52' E 035°06'0 0.0
2015-Oct-17 14:33N 47°52' E 035°06'0 0.0
2015-Oct-17 13:33N 47°52' E 035°06'0 0.2
2015-Oct-17 12:33N 47°52' E 035°06'0 0.2
2015-Oct-17 11:33N 47°52' E 035°06'0 0.0
2015-Oct-17 10:33N 47°52' E 035°06'0 0.3
2015-Oct-17 09:33N 47°53' E 035°07'0 0.0
2015-Oct-17 08:33N 47°53' E 035°07'0 0.0
2015-Oct-17 06:32N 47°53' E 035°07'0 0.0
2015-Oct-17 05:33N 47°53' E 035°07'0 0.0
2015-Oct-17 04:33N 47°53' E 035°07'0 0.0
2015-Oct-17 03:33N 47°53' E 035°07'0 0.0
2015-Oct-17 02:33N 47°53' E 035°07'0 0.0
2015-Oct-17 01:33N 47°53' E 035°07'0 0.0
2015-Oct-17 00:33N 47°53' E 035°07'0 0.0
2015-Oct-16 23:33N 47°53' E 035°07'0 0.0
2015-Oct-16 22:33N 47°53' E 035°07'0 0.0
2015-Oct-16 21:33N 47°53' E 035°07'0 0.0
2015-Oct-16 20:33N 47°53' E 035°07'0 0.0
2015-Oct-16 19:33N 47°53' E 035°07'0 0.0
2015-Oct-16 18:33N 47°53' E 035°07'0 0.0
2015-Oct-16 17:33N 47°53' E 035°07'0 0.0
2015-Oct-16 16:33N 47°53' E 035°07'0 0.0
2015-Oct-16 15:33N 47°53' E 035°07'0 0.0
2015-Oct-16 14:33N 47°53' E 035°07'0 0.0
2015-Oct-16 13:33N 47°53' E 035°07'0 0.0
2015-Oct-16 12:33N 47°53' E 035°07'0 0.0
2015-Oct-16 11:33N 47°53' E 035°07'0 0.0
2015-Oct-16 10:33N 47°53' E 035°07'0 0.0
2015-Oct-16 09:33N 47°53' E 035°07'0 0.0
2015-Oct-16 08:34N 47°53' E 035°07'0 0.5
2015-Oct-16 07:33N 47°52' E 035°06'1 0.8
2015-Oct-16 06:34N 47°52' E 035°05'4 3.6
2015-Oct-16 05:33N 47°49' E 035°09'4 4.1
2015-Oct-16 04:33N 47°45' E 035°10'4 3.8
2015-Oct-16 03:33N 47°41' E 035°08'5 4.0
2015-Oct-16 02:25N 47°38' E 035°04'2 2.5
2015-Oct-16 01:31N 47°36' E 035°02'0 0.1
2015-Oct-16 00:33N 47°36' E 035°02'0 0.0
2015-Oct-15 23:28N 47°36' E 035°02'0 0.0
2015-Oct-15 22:33N 47°36' E 035°02'0 0.0
2015-Oct-15 21:32N 47°36' E 035°02'1 0.6
2015-Oct-15 20:33N 47°35' E 035°03'0 0.4
2015-Oct-15 19:33N 47°35' E 035°03'0 0.0
2015-Oct-15 18:33N 47°35' E 035°03'0 0.0
2015-Oct-15 17:33N 47°35' E 035°03'0 0.0
2015-Oct-15 16:33N 47°35' E 035°03'0 0.0
2015-Oct-15 15:33N 47°35' E 035°03'0 0.0
2015-Oct-15 14:33N 47°35' E 035°03'0 0.0
2015-Oct-15 13:33N 47°35' E 035°03'0 0.0
2015-Oct-15 12:33N 47°35' E 035°03'0 0.4
2015-Oct-15 11:25N 47°35' E 035°03'0 0.0
2015-Oct-15 10:09N 47°35' E 035°03'0 0.0
2015-Oct-15 09:27N 47°35' E 035°03'0 0.0
2015-Oct-15 08:33N 47°35' E 035°03'  

Dump ship's entire track history